Time,TemperatureF,DewpointF,PressureIn,WindDirection,WindDirectionDegrees,WindSpeedMPH,WindSpeedGustMPH,Humidity,HourlyPrecipIn,Conditions,Clouds,dailyrainin,SoftwareType,DateUTC
2013-07-19 00:06:00,57.0,50.9,29.84,North,0,0.0,-999.0,80,0.00,,,0.00,open2300 v1.10,2013-07-19 07:06:00,
2013-07-19 00:21:00,56.8,50.7,29.84,North,0,0.0,-999.0,80,0.00,,,0.00,open2300 v1.10,2013-07-19 07:21:00,
2013-07-19 00:36:00,56.8,50.7,29.84,North,0,0.0,-999.0,80,0.00,,,0.00,open2300 v1.10,2013-07-19 07:36:00,
2013-07-19 00:51:00,56.8,50.7,29.84,North,0,0.0,-999.0,80,0.00,,,0.00,open2300 v1.10,2013-07-19 07:51:00,
2013-07-19 01:07:00,56.8,50.7,29.84,North,0,0.0,-999.0,80,0.00,,,0.00,open2300 v1.10,2013-07-19 08:07:00,
2013-07-19 01:21:00,56.8,51.0,29.83,North,0,0.0,-999.0,81,0.00,,,0.00,open2300 v1.10,2013-07-19 08:21:00,
2013-07-19 01:36:00,56.7,50.9,29.83,North,0,0.0,-999.0,81,0.00,,,0.00,open2300 v1.10,2013-07-19 08:36:00,
2013-07-19 01:51:00,56.5,50.7,29.83,North,0,0.0,-999.0,81,0.00,,,0.00,open2300 v1.10,2013-07-19 08:51:00,
2013-07-19 02:07:00,56.5,50.7,29.82,North,0,0.0,-999.0,81,0.00,,,0.00,open2300 v1.10,2013-07-19 09:07:00,
2013-07-19 02:21:00,56.3,50.5,29.81,North,0,0.0,-999.0,81,0.00,,,0.00,open2300 v1.10,2013-07-19 09:21:00,
2013-07-19 02:36:00,56.5,50.7,29.81,North,0,0.0,-999.0,81,0.00,,,0.00,open2300 v1.10,2013-07-19 09:36:00,
2013-07-19 02:51:00,56.5,50.7,29.81,North,0,0.0,-999.0,81,0.00,,,0.00,open2300 v1.10,2013-07-19 09:51:00,
2013-07-19 03:07:00,56.3,50.8,29.80,North,0,0.0,-999.0,82,0.00,,,0.00,open2300 v1.10,2013-07-19 10:07:00,
2013-07-19 03:21:00,56.1,50.7,29.80,North,0,0.0,-999.0,82,0.00,,,0.00,open2300 v1.10,2013-07-19 10:21:00,
2013-07-19 03:36:00,56.1,50.7,29.81,North,0,0.0,-999.0,82,0.00,,,0.00,open2300 v1.10,2013-07-19 10:36:00,
2013-07-19 03:51:00,55.9,50.5,29.81,North,0,0.0,-999.0,82,0.00,,,0.00,open2300 v1.10,2013-07-19 10:51:00,
2013-07-19 04:07:00,56.1,50.7,29.81,North,0,0.0,-999.0,82,0.00,,,0.00,open2300 v1.10,2013-07-19 11:07:00,
2013-07-19 04:21:00,56.1,50.7,29.81,North,0,0.0,-999.0,82,0.00,,,0.00,open2300 v1.10,2013-07-19 11:21:00,
2013-07-19 04:36:00,56.1,50.7,29.81,North,0,0.0,-999.0,82,0.00,,,0.00,open2300 v1.10,2013-07-19 11:36:00,
2013-07-19 04:51:00,56.1,50.7,29.81,North,0,0.0,-999.0,82,0.00,,,0.00,open2300 v1.10,2013-07-19 11:51:00,
2013-07-19 05:07:00,56.1,50.7,29.81,North,0,0.0,-999.0,82,0.00,,,0.00,open2300 v1.10,2013-07-19 12:07:00,
2013-07-19 05:21:00,56.1,50.7,29.80,North,0,0.0,-999.0,82,0.00,,,0.00,open2300 v1.10,2013-07-19 12:21:00,
2013-07-19 05:36:00,56.1,50.7,29.81,North,0,0.0,-999.0,82,0.00,,,0.00,open2300 v1.10,2013-07-19 12:36:00,
2013-07-19 05:51:00,56.1,50.7,29.81,North,0,0.0,-999.0,82,0.00,,,0.00,open2300 v1.10,2013-07-19 12:51:00,
2013-07-19 06:07:00,56.1,50.7,29.81,North,0,0.0,-999.0,82,0.00,,,0.00,open2300 v1.10,2013-07-19 13:07:00,
2013-07-19 06:21:00,56.1,50.7,29.81,North,0,0.0,-999.0,82,0.00,,,0.00,open2300 v1.10,2013-07-19 13:21:00,
2013-07-19 06:36:00,56.1,50.7,29.82,North,0,0.0,-999.0,82,0.00,,,0.00,open2300 v1.10,2013-07-19 13:36:00,
2013-07-19 06:51:00,56.1,50.7,29.82,North,0,0.0,-999.0,82,0.00,,,0.00,open2300 v1.10,2013-07-19 13:51:00,
2013-07-19 07:07:00,56.1,50.7,29.82,North,0,0.0,-999.0,82,0.00,,,0.00,open2300 v1.10,2013-07-19 14:07:00,
2013-07-19 07:21:00,56.3,50.8,29.81,North,0,0.0,-999.0,82,0.00,,,0.00,open2300 v1.10,2013-07-19 14:21:00,
2013-07-19 07:36:00,56.5,51.0,29.82,North,0,0.0,-999.0,82,0.00,,,0.00,open2300 v1.10,2013-07-19 14:36:00,
2013-07-19 07:51:00,56.5,51.0,29.83,North,0,0.0,-999.0,82,0.00,,,0.00,open2300 v1.10,2013-07-19 14:51:00,
2013-07-19 08:06:00,57.0,51.5,29.83,North,0,0.0,-999.0,82,0.00,,,0.00,open2300 v1.10,2013-07-19 15:06:00,
2013-07-19 08:21:00,57.4,51.9,29.83,North,0,0.0,-999.0,82,0.00,,,0.00,open2300 v1.10,2013-07-19 15:21:00,
2013-07-19 08:36:00,57.7,52.3,29.83,North,0,0.0,-999.0,82,0.00,,,0.00,open2300 v1.10,2013-07-19 15:36:00,
2013-07-19 08:51:00,58.5,52.7,29.83,North,0,0.0,-999.0,81,0.00,,,0.00,open2300 v1.10,2013-07-19 15:51:00,
2013-07-19 09:06:00,58.8,52.7,29.84,North,0,0.0,-999.0,80,0.00,,,0.00,open2300 v1.10,2013-07-19 16:06:00,
2013-07-19 09:21:00,59.4,53.2,29.83,North,0,0.0,-999.0,80,0.00,,,0.00,open2300 v1.10,2013-07-19 16:21:00,
2013-07-19 09:36:00,59.9,53.4,29.83,North,0,0.0,-999.0,79,0.00,,,0.00,open2300 v1.10,2013-07-19 16:36:00,
2013-07-19 09:51:00,59.7,52.9,29.83,North,0,0.0,-999.0,78,0.00,,,0.00,open2300 v1.10,2013-07-19 16:51:00,
2013-07-19 10:06:00,59.4,52.5,29.82,North,0,0.0,-999.0,78,0.00,,,0.00,open2300 v1.10,2013-07-19 17:06:00,
2013-07-19 10:21:00,59.4,52.5,29.83,North,0,0.0,-999.0,78,0.00,,,0.00,open2300 v1.10,2013-07-19 17:21:00,
2013-07-19 10:36:00,59.5,52.7,29.83,North,0,0.0,-999.0,78,0.00,,,0.00,open2300 v1.10,2013-07-19 17:36:00,
2013-07-19 10:51:00,59.5,52.7,29.82,North,0,0.0,-999.0,78,0.00,,,0.00,open2300 v1.10,2013-07-19 17:51:00,
2013-07-19 11:06:00,59.9,53.1,29.82,North,0,0.0,-999.0,78,0.00,,,0.00,open2300 v1.10,2013-07-19 18:06:00,
2013-07-19 11:21:00,60.1,53.2,29.82,North,0,0.0,-999.0,78,0.00,,,0.00,open2300 v1.10,2013-07-19 18:21:00,
2013-07-19 11:36:00,61.0,53.8,29.82,North,0,0.0,-999.0,77,0.00,,,0.00,open2300 v1.10,2013-07-19 18:36:00,
2013-07-19 11:51:00,61.3,54.1,29.82,North,0,0.0,-999.0,77,0.00,,,0.00,open2300 v1.10,2013-07-19 18:51:00,
2013-07-19 12:06:00,61.7,54.0,29.83,North,0,0.0,-999.0,76,0.00,,,0.00,open2300 v1.10,2013-07-19 19:06:00,
2013-07-19 12:21:00,61.7,53.7,29.82,North,0,0.0,-999.0,75,0.00,,,0.00,open2300 v1.10,2013-07-19 19:21:00,
2013-07-19 12:36:00,62.2,54.2,29.81,North,0,0.0,-999.0,75,0.00,,,0.00,open2300 v1.10,2013-07-19 19:36:00,
2013-07-19 12:51:00,62.8,54.7,29.81,North,0,0.0,-999.0,75,0.00,,,0.00,open2300 v1.10,2013-07-19 19:51:00,
2013-07-19 13:06:00,63.1,54.7,29.81,North,0,0.0,-999.0,74,0.00,,,0.00,open2300 v1.10,2013-07-19 20:06:00,
2013-07-19 13:21:00,63.5,54.7,29.80,North,0,0.0,-999.0,73,0.00,,,0.00,open2300 v1.10,2013-07-19 20:21:00,
2013-07-19 13:36:00,63.7,54.5,29.79,North,0,0.0,-999.0,72,0.00,,,0.00,open2300 v1.10,2013-07-19 20:36:00,
2013-07-19 13:51:00,64.0,54.9,29.79,North,0,0.0,-999.0,72,0.00,,,0.00,open2300 v1.10,2013-07-19 20:51:00,
2013-07-19 14:06:00,64.4,54.9,29.78,North,0,0.0,-999.0,71,0.00,,,0.00,open2300 v1.10,2013-07-19 21:06:00,
2013-07-19 14:21:00,64.6,54.7,29.78,North,0,0.0,-999.0,70,0.00,,,0.00,open2300 v1.10,2013-07-19 21:21:00,
2013-07-19 14:36:00,64.9,55.0,29.78,North,0,0.0,-999.0,70,0.00,,,0.00,open2300 v1.10,2013-07-19 21:36:00,
2013-07-19 14:51:00,64.9,54.5,29.78,North,0,0.0,-999.0,69,0.00,,,0.00,open2300 v1.10,2013-07-19 21:51:00,
2013-07-19 15:06:00,65.1,54.7,29.77,North,0,0.0,-999.0,69,0.00,,,0.00,open2300 v1.10,2013-07-19 22:06:00,
2013-07-19 15:21:00,65.5,54.6,29.78,North,0,0.0,-999.0,68,0.00,,,0.00,open2300 v1.10,2013-07-19 22:21:00,
2013-07-19 15:36:00,64.8,54.0,29.77,North,0,0.0,-999.0,68,0.00,,,0.00,open2300 v1.10,2013-07-19 22:36:00,
2013-07-19 15:51:00,64.6,54.2,29.75,North,0,0.0,-999.0,69,0.00,,,0.00,open2300 v1.10,2013-07-19 22:51:00,
2013-07-19 16:06:00,64.8,54.4,29.75,North,0,0.0,-999.0,69,0.00,,,0.00,open2300 v1.10,2013-07-19 23:06:00,
2013-07-19 16:21:00,64.8,54.4,29.75,North,0,0.0,-999.0,69,0.00,,,0.00,open2300 v1.10,2013-07-19 23:21:00,
2013-07-19 16:36:00,64.6,54.2,29.74,North,0,0.0,-999.0,69,0.00,,,0.00,open2300 v1.10,2013-07-19 23:36:00,
2013-07-19 16:51:00,64.6,54.2,29.74,North,0,0.0,-999.0,69,0.00,,,0.00,open2300 v1.10,2013-07-19 23:51:00,
2013-07-19 17:06:00,64.6,53.8,29.74,North,0,0.0,-999.0,68,0.00,,,0.00,open2300 v1.10,2013-07-20 00:06:00,
2013-07-19 17:21:00,64.9,54.5,29.74,North,0,0.0,-999.0,69,0.00,,,0.00,open2300 v1.10,2013-07-20 00:21:00,
2013-07-19 17:36:00,65.1,54.3,29.73,North,0,0.0,-999.0,68,0.00,,,0.00,open2300 v1.10,2013-07-20 00:36:00,
2013-07-19 17:51:00,64.6,53.8,29.73,North,0,0.0,-999.0,68,0.00,,,0.00,open2300 v1.10,2013-07-20 00:51:00,
2013-07-19 18:06:00,64.4,53.2,29.72,North,0,0.0,-999.0,67,0.00,,,0.00,open2300 v1.10,2013-07-20 01:06:00,
2013-07-19 18:21:00,63.7,53.3,29.72,North,0,0.0,-999.0,69,0.00,,,0.00,open2300 v1.10,2013-07-20 01:21:00,
2013-07-19 18:36:00,63.9,53.5,29.72,North,0,0.0,-999.0,69,0.00,,,0.00,open2300 v1.10,2013-07-20 01:36:00,
2013-07-19 18:51:00,63.7,53.3,29.73,North,0,0.0,-999.0,69,0.00,,,0.00,open2300 v1.10,2013-07-20 01:51:00,
2013-07-19 19:06:00,63.1,52.8,29.73,North,0,0.0,-999.0,69,0.00,,,0.00,open2300 v1.10,2013-07-20 02:06:00,
2013-07-19 19:21:00,61.3,51.6,29.73,North,0,0.0,-999.0,70,0.00,,,0.00,open2300 v1.10,2013-07-20 02:21:00,
2013-07-19 19:36:00,59.9,50.9,29.73,North,0,0.0,-999.0,72,0.00,,,0.00,open2300 v1.10,2013-07-20 02:36:00,
2013-07-19 19:51:00,58.8,50.5,29.74,North,0,0.0,-999.0,74,0.00,,,0.00,open2300 v1.10,2013-07-20 02:51:00,
2013-07-19 20:06:00,58.5,50.5,29.74,North,0,0.0,-999.0,75,0.00,,,0.00,open2300 v1.10,2013-07-20 03:06:00,
2013-07-19 20:21:00,57.9,50.4,29.74,North,0,0.0,-999.0,76,0.00,,,0.00,open2300 v1.10,2013-07-20 03:21:00,
2013-07-19 20:36:00,57.6,50.0,29.75,North,0,0.0,-999.0,76,0.00,,,0.00,open2300 v1.10,2013-07-20 03:36:00,
2013-07-19 20:51:00,57.4,50.2,29.76,North,0,0.0,-999.0,77,0.00,,,0.00,open2300 v1.10,2013-07-20 03:51:00,
2013-07-19 21:06:00,57.0,49.8,29.76,North,0,0.0,-999.0,77,0.00,,,0.00,open2300 v1.10,2013-07-20 04:06:00,
2013-07-19 21:21:00,57.0,50.2,29.76,North,0,0.0,-999.0,78,0.00,,,0.00,open2300 v1.10,2013-07-20 04:21:00,
2013-07-19 21:36:00,57.2,50.4,29.76,North,0,0.0,-999.0,78,0.00,,,0.00,open2300 v1.10,2013-07-20 04:36:00,
2013-07-19 21:51:00,57.0,50.2,29.77,North,0,0.0,-999.0,78,0.00,,,0.00,open2300 v1.10,2013-07-20 04:51:00,
2013-07-19 22:06:00,56.8,50.0,29.77,North,0,0.0,-999.0,78,0.00,,,0.00,open2300 v1.10,2013-07-20 05:06:00,
2013-07-19 22:21:00,57.0,50.2,29.77,North,0,0.0,-999.0,78,0.00,,,0.00,open2300 v1.10,2013-07-20 05:21:00,
2013-07-19 22:36:00,57.0,50.5,29.77,North,0,0.0,-999.0,79,0.00,,,0.00,open2300 v1.10,2013-07-20 05:36:00,
2013-07-19 22:51:00,57.0,50.5,29.76,North,0,0.0,-999.0,79,0.00,,,0.00,open2300 v1.10,2013-07-20 05:51:00,
2013-07-19 23:06:00,57.2,50.7,29.76,North,0,0.0,-999.0,79,0.00,,,0.00,open2300 v1.10,2013-07-20 06:06:00,
2013-07-19 23:21:00,57.0,50.5,29.76,North,0,0.0,-999.0,79,0.00,,,0.00,open2300 v1.10,2013-07-20 06:21:00,
2013-07-19 23:36:00,56.8,50.4,29.76,North,0,0.0,-999.0,79,0.00,,,0.00,open2300 v1.10,2013-07-20 06:36:00,
2013-07-19 23:51:00,56.7,50.2,29.76,North,0,0.0,-999.0,79,0.00,,,0.00,open2300 v1.10,2013-07-20 06:51:00,